createdAt,value
2023-05-05T00:02:13.080Z,1321.3
2023-05-05T00:12:12.643Z,1321.3
2023-05-05T00:22:13.050Z,1321.3
2023-05-05T00:32:13.411Z,1321.3
2023-05-05T00:42:13.800Z,1321.3
2023-05-05T00:52:14.018Z,1321.3
2023-05-05T01:02:14.116Z,1321.3
2023-05-05T01:12:14.169Z,1321.3
2023-05-05T01:22:14.113Z,1321.3
2023-05-05T01:32:13.751Z,1321.3
2023-05-05T01:42:13.630Z,1321.3
2023-05-05T01:52:12.678Z,1321.3
2023-05-05T02:02:13.287Z,1321.3
2023-05-05T02:12:13.304Z,1321.3
2023-05-05T02:22:13.327Z,1321.3
2023-05-05T02:32:12.507Z,1321.3
2023-05-05T02:42:12.245Z,1321.3
2023-05-05T02:52:12.165Z,1321.3
2023-05-05T03:02:07.336Z,0
2023-05-05T03:12:07.521Z,0
2023-05-05T03:22:07.794Z,0
2023-05-05T03:32:07.597Z,0
2023-05-05T03:42:08.683Z,0
2023-05-05T03:52:09.125Z,0
2023-05-05T04:02:08.747Z,0
2023-05-05T04:12:11.544Z,0
2023-05-05T04:22:12.630Z,0
2023-05-05T04:32:11.942Z,0
2023-05-05T04:42:14.554Z,0
2023-05-05T04:52:15.261Z,0
2023-05-05T05:02:16.102Z,0
2023-05-05T05:12:15.836Z,0
2023-05-05T05:22:16.233Z,0
2023-05-05T05:32:16.764Z,0
2023-05-05T05:42:17.937Z,0
2023-05-05T05:52:23.180Z,0
2023-05-05T06:02:24.857Z,0
2023-05-05T06:12:25.515Z,0
2023-05-05T06:22:27.199Z,0
2023-05-05T06:32:27.560Z,0
2023-05-05T06:42:29.667Z,0
2023-05-05T06:52:37.428Z,0
2023-05-05T07:02:44.399Z,0
2023-05-05T07:12:49.675Z,0
2023-05-05T07:22:56.545Z,0
2023-05-05T07:33:08.512Z,0
2023-05-05T07:43:21.876Z,0
2023-05-05T07:53:38.292Z,0
2023-05-05T08:03:56.220Z,0
2023-05-05T08:14:13.805Z,0
2023-05-05T08:24:33.315Z,0
2023-05-05T08:34:48.441Z,0
2023-05-05T08:45:03.541Z,0
2023-05-05T08:55:16.406Z,0
2023-05-05T09:02:10.377Z,0
2023-05-05T09:12:21.109Z,0
2023-05-05T09:22:27.822Z,0
2023-05-05T09:32:41.971Z,0
2023-05-05T09:42:56.048Z,0
2023-05-05T09:53:09.605Z,0
2023-05-05T10:03:18.350Z,0
2023-05-05T10:13:36.072Z,0
2023-05-05T10:23:52.419Z,0
2023-05-05T10:34:08.914Z,0
2023-05-05T10:44:28.365Z,0
2023-05-05T10:54:42.600Z,0
2023-05-05T11:04:57.275Z,0
2023-05-05T11:15:10.417Z,0
2023-05-05T11:25:26.255Z,0
2023-05-05T11:35:43.505Z,0
2023-05-05T11:45:59.735Z,0
2023-05-05T11:56:14.199Z,0
2023-05-05T12:06:31.617Z,111.9
2023-05-05T12:16:50.981Z,111.9
2023-05-05T12:27:09.908Z,111.1
2023-05-05T12:37:23.110Z,111.1
2023-05-05T12:47:35.323Z,119.3
2023-05-05T12:57:50.757Z,120.9
2023-05-05T13:08:07.130Z,118.7
2023-05-05T13:18:20.998Z,120.3
2023-05-05T13:28:34.798Z,117.6
2023-05-05T13:38:41.169Z,117.6
2023-05-05T13:48:48.254Z,115.8
2023-05-05T13:59:01.068Z,110.2
2023-05-05T14:09:10.272Z,110.2
2023-05-05T14:19:17.200Z,110.2
2023-05-05T14:29:18.154Z,110.2
2023-05-05T14:39:19.560Z,110.2
2023-05-05T14:49:24.206Z,110.2
2023-05-05T14:59:20.845Z,110.2
2023-05-05T15:02:08.065Z,0
2023-05-05T15:12:08.987Z,0
2023-05-05T15:22:09.660Z,0
2023-05-05T15:32:10.139Z,0
2023-05-05T15:42:09.096Z,0
2023-05-05T15:52:08.378Z,0
2023-05-05T16:02:08.405Z,0
2023-05-05T16:12:09.930Z,0
2023-05-05T16:22:13.912Z,0
2023-05-05T16:32:15.735Z,0
2023-05-05T16:42:18.537Z,0
2023-05-05T16:52:19.696Z,0
2023-05-05T17:02:20.246Z,0
2023-05-05T17:12:22.348Z,0
2023-05-05T17:22:23.900Z,0
2023-05-05T17:32:26.087Z,0
2023-05-05T17:42:26.980Z,0
2023-05-05T17:52:28.154Z,0
2023-05-05T18:02:28.267Z,0
2023-05-05T18:12:28.725Z,0
2023-05-05T18:22:28.755Z,0
2023-05-05T18:32:29.187Z,0
2023-05-05T18:42:29.505Z,1066.1
2023-05-05T18:52:30.752Z,1066.1
2023-05-05T19:02:32.428Z,1066.1
2023-05-05T19:12:32.590Z,1066.1
2023-05-05T19:22:31.528Z,1066.1
2023-05-05T19:32:32.787Z,1066.1
2023-05-05T19:42:32.589Z,1066.1
2023-05-05T19:52:33.056Z,1066.1
2023-05-05T20:02:35.469Z,1066.1
2023-05-05T20:12:33.108Z,1066.1
2023-05-05T20:22:32.941Z,1066.1
2023-05-05T20:32:33.149Z,1066.1
2023-05-05T20:42:32.712Z,1066.1
2023-05-05T20:52:32.872Z,1066.1
2023-05-05T21:02:09.375Z,0
2023-05-05T21:12:09.088Z,0
2023-05-05T21:22:09.426Z,0
2023-05-05T21:32:10.036Z,0
2023-05-05T21:42:10.425Z,0
2023-05-05T21:52:11.408Z,0
2023-05-05T22:02:11.184Z,0
2023-05-05T22:12:11.782Z,0
2023-05-05T22:22:12.200Z,0
2023-05-05T22:32:13.034Z,0
2023-05-05T22:42:14.384Z,0
2023-05-05T22:52:15.963Z,0
2023-05-05T23:02:16.290Z,0
2023-05-05T23:12:17.335Z,0
2023-05-05T23:22:17.346Z,0
2023-05-05T23:32:17.414Z,0
2023-05-05T23:42:17.364Z,0
2023-05-05T23:52:17.935Z,0
